Terminal Aerodrome Forecast
Issued by NWS

Home | Current Version | Previous Version | Graphics & Text | Print | Product List | Glossary On
Versions: 1 2 3 4 5 6 7 8 9 10 11 12 13 14 15 16 17 18
000
FTUS43 KICT 281739
TAFRSL
TAF
KRSL 281739Z 2818/2918 35010KT P6SM VCSH BKN100
      TEMPO 2818/2819 -SHRA
     FM282000 04008KT P6SM SCT100 BKN250
     FM290400 05011KT P6SM VCSH SCT050 BKN090
     FM291000 06014KT P6SM VCSH SCT015 OVC030=

USA.gov is the U.S. government's official web portal to all federal, state and local government web resources and services.